Eurika — LYRZ — position and weather

sailwx.info

Track history (hours):
 
Tides and Currents Weather Stations Pressure Air Temp Water Temp Dewpoint Dewpoint Depression Visibility Wind Speed Wind Dir Waves Ship Positions

Eurika

Last reported at 2017-Nov-18 10:34 UTC. Time now 2017-Nov-23 17:01 UTC.
Position N 35°58' E 014°39'.

Length 79 m; draft 3.2 m.

MMSI: 277335000.

Date/timePositionNaut miles runAvg speedWind from/ knotsBaromVisibWave heightAir tempDewpointWater temp
2017-Nov-18 10:34N 35°58' E 014°39'2 7.9
2017-Nov-18 10:18N 35°57' E 014°37'5 0.2
2017-Nov-17 14:45N 35°54' E 014°32'1 2.4
2017-Nov-17 14:30N 35°55' E 014°33'1 1.9
2017-Nov-17 13:59N 35°56' E 014°32'2 4.2
2017-Nov-17 13:30N 35°57' E 014°30'2 4.8
2017-Nov-17 13:00N 35°58' E 014°28'3 5.4
2017-Nov-17 12:30N 35°60' E 014°25'0 0.2
2017-Nov-17 11:58N 35°60' E 014°25'0 0.0
2017-Nov-17 11:28N 35°59' E 014°25'0 0.0
2017-Nov-17 10:58N 35°59' E 014°25'0 0.0
2017-Nov-17 10:28N 35°59' E 014°25'0 0.0
2017-Nov-17 09:58N 35°59' E 014°25'0 0.0
2017-Nov-17 09:28N 35°59' E 014°25'0 0.0
2017-Nov-17 08:52N 35°59' E 014°25'0 0.0
2017-Nov-17 08:28N 35°59' E 014°25'0 0.0
2017-Nov-17 07:58N 35°59' E 014°25'0 0.0
2017-Nov-17 07:28N 35°59' E 014°25'0 0.0
2017-Nov-17 06:58N 35°59' E 014°25'0 0.0
2017-Nov-17 06:28N 35°59' E 014°25'0 0.0
2017-Nov-17 05:58N 35°59' E 014°25'0 0.0
2017-Nov-17 05:28N 35°59' E 014°25'0 0.0
2017-Nov-17 04:58N 35°59' E 014°25'0 0.0
2017-Nov-17 04:31N 35°59' E 014°25'0 0.0
2017-Nov-17 04:00N 35°59' E 014°25'0 0.0
2017-Nov-17 03:30N 35°59' E 014°25'0 0.0
2017-Nov-17 03:00N 35°59' E 014°25'0 0.0
2017-Nov-17 02:30N 35°59' E 014°25'0 0.0
2017-Nov-17 02:00N 35°59' E 014°25'0 0.0
2017-Nov-17 01:30N 35°59' E 014°25'0 0.0
2017-Nov-17 01:00N 35°59' E 014°25'0 0.0
2017-Nov-17 00:30N 35°59' E 014°25'0 0.0
2017-Nov-16 23:57N 35°59' E 014°25'0 0.0
2017-Nov-16 23:30N 35°59' E 014°25'0 0.0
2017-Nov-16 23:00N 35°59' E 014°25'0 0.0
2017-Nov-16 22:30N 35°59' E 014°25'0 0.0
2017-Nov-16 22:00N 35°59' E 014°25'0 0.0
2017-Nov-16 21:30N 35°59' E 014°25'0 0.0
2017-Nov-16 21:00N 35°59' E 014°25'0 0.0
2017-Nov-16 20:30N 35°59' E 014°25'0 0.0
2017-Nov-16 20:00N 35°59' E 014°25'0 0.0
2017-Nov-16 19:30N 35°59' E 014°25'0 0.0
2017-Nov-16 18:57N 35°59' E 014°25'0 0.0
2017-Nov-16 18:30N 35°59' E 014°25'0 0.0
2017-Nov-16 18:00N 35°59' E 014°25'0 0.0
2017-Nov-16 17:30N 35°59' E 014°25'0 0.0
2017-Nov-16 17:00N 35°59' E 014°25'0 0.0
2017-Nov-16 16:30N 35°59' E 014°25'0 0.0
2017-Nov-16 16:00N 35°59' E 014°25'0 0.0
2017-Nov-16 15:29N 35°59' E 014°25'0 0.0
2017-Nov-16 15:00N 35°59' E 014°25'0 0.0
2017-Nov-16 14:30N 35°59' E 014°25'0 0.0
2017-Nov-16 14:00N 35°59' E 014°25'0 0.0
2017-Nov-16 13:30N 35°59' E 014°25'0 0.1
2017-Nov-16 13:00N 35°60' E 014°25'1 2.5
2017-Nov-16 12:30N 35°60' E 014°26'5 7.0
2017-Nov-16 11:49N 36°04' E 014°27'2 7.9
2017-Nov-16 11:30N 36°07' E 014°26'4 8.2
2017-Nov-16 11:00N 36°11' E 014°25'4 8.1
2017-Nov-16 10:30N 36°15' E 014°23'  
Track history (hours):
 
Tides and Currents Weather Stations Pressure Air Temp Water Temp Dewpoint Dewpoint Depression Visibility Wind Speed Wind Dir Waves Ship Positions

Eurika

Last reported at 2017-Nov-18 10:34 UTC. Time now 2017-Nov-23 17:01 UTC.
Position N 35°58' E 014°39'.

Length 79 m; draft 3.2 m.

MMSI: 277335000.

Date/timePositionNaut miles runAvg speedWind from/ knotsBaromVisibWave heightAir tempDewpointWater temp
2017-Nov-18 10:34N 35°58' E 014°39'2 7.9
2017-Nov-18 10:18N 35°57' E 014°37'5 0.2
2017-Nov-17 14:45N 35°54' E 014°32'1 2.4
2017-Nov-17 14:30N 35°55' E 014°33'1 1.9
2017-Nov-17 13:59N 35°56' E 014°32'2 4.2
2017-Nov-17 13:30N 35°57' E 014°30'2 4.8
2017-Nov-17 13:00N 35°58' E 014°28'3 5.4
2017-Nov-17 12:30N 35°60' E 014°25'0 0.2
2017-Nov-17 11:58N 35°60' E 014°25'0 0.0
2017-Nov-17 11:28N 35°59' E 014°25'0 0.0
2017-Nov-17 10:58N 35°59' E 014°25'0 0.0
2017-Nov-17 10:28N 35°59' E 014°25'0 0.0
2017-Nov-17 09:58N 35°59' E 014°25'0 0.0
2017-Nov-17 09:28N 35°59' E 014°25'0 0.0
2017-Nov-17 08:52N 35°59' E 014°25'0 0.0
2017-Nov-17 08:28N 35°59' E 014°25'0 0.0
2017-Nov-17 07:58N 35°59' E 014°25'0 0.0
2017-Nov-17 07:28N 35°59' E 014°25'0 0.0
2017-Nov-17 06:58N 35°59' E 014°25'0 0.0
2017-Nov-17 06:28N 35°59' E 014°25'0 0.0
2017-Nov-17 05:58N 35°59' E 014°25'0 0.0
2017-Nov-17 05:28N 35°59' E 014°25'0 0.0
2017-Nov-17 04:58N 35°59' E 014°25'0 0.0
2017-Nov-17 04:31N 35°59' E 014°25'0 0.0
2017-Nov-17 04:00N 35°59' E 014°25'0 0.0
2017-Nov-17 03:30N 35°59' E 014°25'0 0.0
2017-Nov-17 03:00N 35°59' E 014°25'0 0.0
2017-Nov-17 02:30N 35°59' E 014°25'0 0.0
2017-Nov-17 02:00N 35°59' E 014°25'0 0.0
2017-Nov-17 01:30N 35°59' E 014°25'0 0.0
2017-Nov-17 01:00N 35°59' E 014°25'0 0.0
2017-Nov-17 00:30N 35°59' E 014°25'0 0.0
2017-Nov-16 23:57N 35°59' E 014°25'0 0.0
2017-Nov-16 23:30N 35°59' E 014°25'0 0.0
2017-Nov-16 23:00N 35°59' E 014°25'0 0.0
2017-Nov-16 22:30N 35°59' E 014°25'0 0.0
2017-Nov-16 22:00N 35°59' E 014°25'0 0.0
2017-Nov-16 21:30N 35°59' E 014°25'0 0.0
2017-Nov-16 21:00N 35°59' E 014°25'0 0.0
2017-Nov-16 20:30N 35°59' E 014°25'0 0.0
2017-Nov-16 20:00N 35°59' E 014°25'0 0.0
2017-Nov-16 19:30N 35°59' E 014°25'0 0.0
2017-Nov-16 18:57N 35°59' E 014°25'0 0.0
2017-Nov-16 18:30N 35°59' E 014°25'0 0.0
2017-Nov-16 18:00N 35°59' E 014°25'0 0.0
2017-Nov-16 17:30N 35°59' E 014°25'0 0.0
2017-Nov-16 17:00N 35°59' E 014°25'0 0.0
2017-Nov-16 16:30N 35°59' E 014°25'0 0.0
2017-Nov-16 16:00N 35°59' E 014°25'0 0.0
2017-Nov-16 15:29N 35°59' E 014°25'0 0.0
2017-Nov-16 15:00N 35°59' E 014°25'0 0.0
2017-Nov-16 14:30N 35°59' E 014°25'0 0.0
2017-Nov-16 14:00N 35°59' E 014°25'0 0.0
2017-Nov-16 13:30N 35°59' E 014°25'0 0.1
2017-Nov-16 13:00N 35°60' E 014°25'1 2.5
2017-Nov-16 12:30N 35°60' E 014°26'5 7.0
2017-Nov-16 11:49N 36°04' E 014°27'2 7.9
2017-Nov-16 11:30N 36°07' E 014°26'4 8.2
2017-Nov-16 11:00N 36°11' E 014°25'4 8.1
2017-Nov-16 10:30N 36°15' E 014°23'  

Dump ship's entire track history